createdAt,value
2022-08-12T00:06:37.868Z,20.69
2022-08-12T00:12:56.805Z,20.86
2022-08-12T00:16:21.786Z,20.71
2022-08-12T00:19:41.954Z,20.81
2022-08-12T00:33:51.763Z,20.29
2022-08-12T00:46:40.226Z,20.09
2022-08-12T00:49:35.409Z,20.09
2022-08-12T00:52:24.226Z,20.09
2022-08-12T00:58:04.143Z,19.86
2022-08-12T01:00:34.470Z,19.85
2022-08-12T01:03:06.504Z,19.74
2022-08-12T01:05:57.570Z,19.75
2022-08-12T01:08:44.312Z,19.66
2022-08-12T01:11:30.930Z,19.64
2022-08-12T01:14:02.525Z,19.69
2022-08-12T01:16:31.190Z,19.45
2022-08-12T01:19:01.355Z,19.47
2022-08-12T01:22:10.432Z,19.44
2022-08-12T01:24:53.307Z,19.42
2022-08-12T01:27:23.861Z,19.33
2022-08-12T01:29:54.697Z,19.48
2022-08-12T01:32:26.867Z,19.31
2022-08-12T01:35:11.710Z,19.35
2022-08-12T01:37:57.479Z,19.14
2022-08-12T01:40:36.466Z,19.08
2022-08-12T01:43:13.560Z,19.03
2022-08-12T01:46:00.620Z,19.18
2022-08-12T01:48:55.384Z,18.96
2022-08-12T01:52:20.288Z,19.04
2022-08-12T01:54:44.276Z,18.82
2022-08-12T01:57:58.463Z,18.86
2022-08-12T02:00:55.046Z,19.14
2022-08-12T02:04:28.736Z,18.96
2022-08-12T02:07:56.509Z,18.73
2022-08-12T02:11:02.161Z,18.65
2022-08-12T02:14:01.853Z,18.81
2022-08-12T02:16:58.136Z,18.78
2022-08-12T02:20:52.183Z,18.62
2022-08-12T02:23:28.130Z,18.38
2022-08-12T02:26:03.564Z,18.47
2022-08-12T02:28:32.097Z,18.53
2022-08-12T02:31:08.992Z,18.58
2022-08-12T02:33:38.149Z,18.46
2022-08-12T02:36:06.633Z,18.31
2022-08-12T02:38:36.963Z,18.38
2022-08-12T02:41:07.494Z,18.59
2022-08-12T02:43:55.656Z,18.43
2022-08-12T02:46:34.706Z,18.39
2022-08-12T02:49:17.507Z,18.29
2022-08-12T02:51:45.800Z,18.26
2022-08-12T02:54:14.740Z,18.02
2022-08-12T02:56:50.336Z,17.96
2022-08-12T02:59:24.389Z,18.11
2022-08-12T03:01:57.117Z,18.14
2022-08-12T03:04:30.471Z,18.31
2022-08-12T03:07:21.809Z,18.22
2022-08-12T03:10:04.154Z,18.07
2022-08-12T03:12:48.945Z,17.81
2022-08-12T03:15:24.035Z,17.76
2022-08-12T03:18:25.579Z,17.92
2022-08-12T03:20:59.839Z,18.04
2022-08-12T03:23:31.305Z,17.95
2022-08-12T03:26:02.656Z,18.06
2022-08-12T03:28:50.811Z,17.78
2022-08-12T03:31:24.922Z,18.02
2022-08-12T03:34:01.811Z,17.79
2022-08-12T03:36:38.993Z,17.91
2022-08-12T03:39:16.689Z,17.97
2022-08-12T03:41:54.143Z,17.76
2022-08-12T03:45:28.155Z,17.74
2022-08-12T03:48:30.493Z,17.87
2022-08-12T03:51:19.133Z,17.86
2022-08-12T03:54:07.903Z,17.78
2022-08-12T03:56:56.470Z,17.73
2022-08-12T03:59:43.138Z,17.62
2022-08-12T04:02:16.267Z,17.55
2022-08-12T04:04:45.861Z,17.81
2022-08-12T04:07:16.455Z,17.91
2022-08-12T04:09:46.866Z,17.76
2022-08-12T04:12:34.133Z,17.90
2022-08-12T04:15:03.697Z,17.63
2022-08-12T04:17:33.834Z,17.72
2022-08-12T04:20:02.124Z,17.85
2022-08-12T04:22:31.182Z,17.88
2022-08-12T04:25:03.305Z,17.84
2022-08-12T04:27:32.790Z,17.88
2022-08-12T04:30:16.686Z,17.87
2022-08-12T04:32:52.384Z,17.79
2022-08-12T04:35:22.438Z,17.88
2022-08-12T04:37:59.962Z,18.02
2022-08-12T04:40:33.334Z,18.05
2022-08-12T04:43:02.441Z,18.02
2022-08-12T04:45:37.841Z,18.03
2022-08-12T04:48:07.385Z,18.04
2022-08-12T04:50:37.264Z,18.05
2022-08-12T04:53:09.029Z,18.19
2022-08-12T04:55:40.984Z,18.13
2022-08-12T04:58:10.085Z,18.22
2022-08-12T05:00:38.646Z,18.27
2022-08-12T05:03:07.910Z,18.31
2022-08-12T05:05:40.793Z,18.27
2022-08-12T05:08:15.919Z,18.28
2022-08-12T05:10:46.734Z,18.21
2022-08-12T05:13:23.790Z,18.25
2022-08-12T05:16:04.986Z,18.22
2022-08-12T05:18:40.101Z,18.40
2022-08-12T05:21:09.673Z,18.58
2022-08-12T05:23:40.475Z,18.74
2022-08-12T05:26:09.002Z,18.46
2022-08-12T05:28:37.834Z,18.58
2022-08-12T05:31:06.247Z,18.58
2022-08-12T05:33:37.943Z,18.63
2022-08-12T05:36:09.997Z,18.71
2022-08-12T05:38:57.003Z,18.79
2022-08-12T05:41:32.254Z,18.80
2022-08-12T05:44:07.367Z,18.91
2022-08-12T05:46:37.254Z,19.01
2022-08-12T05:49:06.826Z,19.19
2022-08-12T05:51:40.226Z,19.19
2022-08-12T05:54:11.799Z,19.25
2022-08-12T05:56:43.530Z,19.33
2022-08-12T05:59:12.839Z,19.33
2022-08-12T06:02:11.406Z,19.52
2022-08-12T06:04:31.596Z,19.47
2022-08-12T06:07:01.914Z,19.60
2022-08-12T06:09:31.096Z,19.70
2022-08-12T06:12:05.893Z,19.93
2022-08-12T06:14:37.910Z,19.93
2022-08-12T06:17:10.569Z,20.18
2022-08-12T06:20:26.520Z,20.28
2022-08-12T06:22:27.329Z,20.17
2022-08-12T06:24:55.638Z,20.20
2022-08-12T06:27:23.950Z,20.33
2022-08-12T06:30:09.445Z,20.44
2022-08-12T06:33:04.272Z,20.60
2022-08-12T06:35:48.277Z,20.75
2022-08-12T06:38:22.719Z,20.76
2022-08-12T06:41:18.634Z,20.80
2022-08-12T06:44:05.013Z,20.98
2022-08-12T06:46:38.914Z,21.13
2022-08-12T06:49:12.537Z,21.20
2022-08-12T06:51:40.968Z,21.30
2022-08-12T06:54:11.528Z,21.35
2022-08-12T06:57:03.033Z,21.53
2022-08-12T06:59:28.286Z,21.64
2022-08-12T07:01:56.551Z,21.78
2022-08-12T07:04:40.296Z,21.94
2022-08-12T07:07:10.612Z,22.10
2022-08-12T07:10:04.629Z,22.04
2022-08-12T07:15:45.412Z,22.40
2022-08-12T07:18:17.852Z,22.55
2022-08-12T07:20:52.687Z,22.59
2022-08-12T07:23:21.351Z,22.70
2022-08-12T07:25:49.492Z,22.88
2022-08-12T07:28:24.810Z,22.97
2022-08-12T07:30:55.033Z,23.18
2022-08-12T07:33:28.232Z,23.34
2022-08-12T07:36:02.359Z,23.48
2022-08-12T07:38:35.944Z,23.49
2022-08-12T07:41:16.531Z,23.61
2022-08-12T07:43:51.573Z,23.74
2022-08-12T07:46:24.461Z,23.96
2022-08-12T07:48:57.862Z,24.08
2022-08-12T07:51:27.966Z,24.25
2022-08-12T07:54:00.367Z,24.33
2022-08-12T07:56:31.612Z,24.46
2022-08-12T07:59:01.159Z,24.55
2022-08-12T08:01:30.466Z,24.68
2022-08-12T08:04:19.345Z,24.80
2022-08-12T08:06:50.077Z,24.97
2022-08-12T08:09:22.275Z,25.08
2022-08-12T08:12:19.730Z,25.18
2022-08-12T08:14:49.841Z,25.39
2022-08-12T08:17:18.634Z,25.54
2022-08-12T08:20:03.522Z,25.72
2022-08-12T08:22:41.810Z,25.74
2022-08-12T08:25:34.308Z,26.04
2022-08-12T08:28:17.371Z,26.32
2022-08-12T08:30:50.497Z,26.36
2022-08-12T08:34:01.466Z,26.70
2022-08-12T08:36:23.506Z,26.91
2022-08-12T08:38:58.048Z,26.55
2022-08-12T08:42:17.638Z,27.03
2022-08-12T08:44:38.369Z,27.77
2022-08-12T08:47:09.107Z,28.13
2022-08-12T08:49:39.919Z,28.45
2022-08-12T08:52:11.345Z,27.95
2022-08-12T08:54:40.679Z,28.07
2022-08-12T08:57:08.866Z,28.36
2022-08-12T08:59:37.070Z,28.92
2022-08-12T09:02:07.766Z,29.17
2022-08-12T09:05:12.373Z,29.35
2022-08-12T09:07:51.052Z,29.43
2022-08-12T09:10:25.219Z,29.42
2022-08-12T09:13:23.732Z,29.96
2022-08-12T09:15:59.627Z,29.80
2022-08-12T09:18:33.161Z,30.38
2022-08-12T09:21:03.898Z,30.44
2022-08-12T09:24:00.419Z,30.47
2022-08-12T09:26:28.809Z,30.46
2022-08-12T09:28:58.328Z,30.78
2022-08-12T09:32:03.276Z,31.08
2022-08-12T09:34:26.600Z,30.26
2022-08-12T09:37:19.920Z,30.55
2022-08-12T09:40:06.575Z,29.76
2022-08-12T09:43:16.541Z,30.69
2022-08-12T09:46:14.329Z,30.35
2022-08-12T09:48:40.308Z,31.50
2022-08-12T09:51:37.381Z,31.60
2022-08-12T09:54:31.100Z,30.38
2022-08-12T09:57:00.468Z,30.91
2022-08-12T10:00:14.633Z,30.87
2022-08-12T10:02:44.845Z,31.66
2022-08-12T10:05:13.925Z,32.25
2022-08-12T10:07:45.836Z,31.31
2022-08-12T10:10:22.994Z,31.97
2022-08-12T10:13:34.390Z,29.33
2022-08-12T10:16:08.222Z,31.23
2022-08-12T10:18:57.474Z,32.27
2022-08-12T10:21:37.657Z,32.57
2022-08-12T10:24:14.382Z,32.73
2022-08-12T10:27:07.294Z,33.26
2022-08-12T10:30:37.938Z,32.23
2022-08-12T10:32:45.206Z,33.10
2022-08-12T10:35:16.667Z,33.17
2022-08-12T10:38:34.940Z,33.36
2022-08-12T10:40:55.692Z,32.70
2022-08-12T10:43:55.542Z,32.30
2022-08-12T10:46:31.356Z,32.61
2022-08-12T10:49:07.073Z,33.32
2022-08-12T10:52:02.931Z,32.90
2022-08-12T10:54:37.745Z,33.06
2022-08-12T10:57:06.478Z,33.61
2022-08-12T11:00:33.788Z,33.50
2022-08-12T11:04:22.847Z,33.36
2022-08-12T11:07:02.947Z,34.20
2022-08-12T11:08:34.641Z,33.66
2022-08-12T11:10:56.718Z,34.26
2022-08-12T11:13:46.066Z,34.03
2022-08-12T11:16:19.524Z,31.71
2022-08-12T11:18:55.328Z,33.73
2022-08-12T11:21:56.397Z,33.82
2022-08-12T11:24:30.675Z,33.20
2022-08-12T11:27:07.708Z,32.72
2022-08-12T11:30:06.566Z,31.32
2022-08-12T11:32:27.033Z,33.45
2022-08-12T11:34:55.443Z,33.00
2022-08-12T11:37:27.667Z,34.19
2022-08-12T11:42:39.793Z,34.77
2022-08-12T11:45:16.383Z,34.68
2022-08-12T11:47:45.615Z,34.84
2022-08-12T11:50:19.632Z,35.05
2022-08-12T11:53:02.313Z,34.28
2022-08-12T11:55:33.077Z,34.04
2022-08-12T11:58:14.643Z,34.57
2022-08-12T12:03:44.039Z,33.94
2022-08-12T12:06:16.925Z,33.45
2022-08-12T12:08:51.359Z,33.95
2022-08-12T12:11:22.754Z,33.96
2022-08-12T12:14:06.849Z,30.97
2022-08-12T12:16:39.950Z,32.73
2022-08-12T12:19:10.625Z,33.09
2022-08-12T12:21:47.323Z,34.32
2022-08-12T12:24:21.473Z,33.95
2022-08-12T12:27:00.441Z,33.93
2022-08-12T12:30:18.298Z,33.23
2022-08-12T12:32:28.864Z,33.11
2022-08-12T12:35:13.466Z,33.59
2022-08-12T12:38:05.660Z,34.33
2022-08-12T12:40:44.162Z,32.00
2022-08-12T12:43:17.584Z,34.15
2022-08-12T12:45:57.369Z,33.96
2022-08-12T12:48:25.572Z,33.49
2022-08-12T12:51:14.941Z,34.00
2022-08-12T12:54:08.432Z,33.42
2022-08-12T12:56:41.943Z,33.49
2022-08-12T12:59:54.418Z,34.19
2022-08-12T13:02:07.968Z,34.45
2022-08-12T13:04:37.960Z,35.05
2022-08-12T13:07:06.937Z,34.83
2022-08-12T13:09:36.616Z,34.40
2022-08-12T13:12:10.903Z,33.76
2022-08-12T13:14:39.974Z,33.26
2022-08-12T13:17:14.691Z,33.39
2022-08-12T13:19:46.996Z,33.41
2022-08-12T13:22:23.849Z,33.17
2022-08-12T13:24:56.148Z,32.93
2022-08-12T13:27:35.282Z,32.54
2022-08-12T13:30:12.504Z,33.47
2022-08-12T13:32:57.382Z,33.35
2022-08-12T13:36:05.957Z,34.57
2022-08-12T13:38:54.404Z,35.12
2022-08-12T13:41:35.810Z,34.74
2022-08-12T13:44:10.573Z,34.22
2022-08-12T13:46:58.775Z,33.47
2022-08-12T13:49:55.234Z,33.49
2022-08-12T13:52:19.418Z,33.22
2022-08-12T13:54:56.382Z,33.06
2022-08-12T13:57:44.572Z,33.62
2022-08-12T14:00:16.636Z,34.42
2022-08-12T14:02:45.043Z,34.54
2022-08-12T14:05:38.419Z,33.79
2022-08-12T14:08:10.953Z,34.26
2022-08-12T14:10:55.823Z,34.34
2022-08-12T14:14:05.306Z,34.03
2022-08-12T14:16:37.737Z,33.99
2022-08-12T14:19:18.305Z,34.67
2022-08-12T14:22:00.442Z,34.68
2022-08-12T14:24:40.757Z,34.03
2022-08-12T14:27:11.069Z,33.53
2022-08-12T14:30:06.080Z,33.65
2022-08-12T14:32:35.769Z,34.01
2022-08-12T14:35:09.621Z,34.06
2022-08-12T14:37:56.932Z,34.17
2022-08-12T14:40:29.969Z,34.37
2022-08-12T14:42:59.364Z,34.00
2022-08-12T14:45:44.287Z,33.90
2022-08-12T14:48:24.505Z,34.27
2022-08-12T14:52:07.791Z,33.74
2022-08-12T14:55:24.794Z,34.23
2022-08-12T14:59:57.896Z,32.36
2022-08-12T15:02:28.646Z,32.65
2022-08-12T15:04:59.676Z,32.53
2022-08-12T15:07:50.068Z,33.00
2022-08-12T15:10:31.915Z,33.24
2022-08-12T15:13:07.220Z,33.25
2022-08-12T15:15:45.977Z,33.55
2022-08-12T15:18:20.951Z,33.61
2022-08-12T15:20:54.754Z,33.10
2022-08-12T15:23:32.727Z,33.15
2022-08-12T15:26:06.283Z,33.50
2022-08-12T15:28:35.700Z,33.26
2022-08-12T15:31:09.527Z,33.38
2022-08-12T15:33:57.345Z,33.82
2022-08-12T15:36:40.846Z,33.97
2022-08-12T15:39:17.203Z,32.02
2022-08-12T15:41:50.269Z,32.78
2022-08-12T15:44:41.591Z,33.21
2022-08-12T15:47:08.943Z,33.25
2022-08-12T15:49:54.931Z,33.39
2022-08-12T15:52:29.401Z,33.30
2022-08-12T15:55:05.072Z,33.95
2022-08-12T15:57:53.844Z,33.76
2022-08-12T16:00:32.778Z,33.63
2022-08-12T16:03:08.628Z,32.95
2022-08-12T16:06:16.906Z,32.28
2022-08-12T16:08:39.508Z,31.57
2022-08-12T16:11:14.968Z,32.64
2022-08-12T16:13:47.172Z,32.56
2022-08-12T16:16:23.943Z,32.66
2022-08-12T16:19:01.918Z,32.12
2022-08-12T16:21:50.684Z,31.83
2022-08-12T16:24:21.987Z,32.11
2022-08-12T16:26:51.343Z,32.00
2022-08-12T16:29:52.071Z,31.19
2022-08-12T16:32:21.172Z,31.74
2022-08-12T16:34:55.466Z,31.63
2022-08-12T16:37:32.747Z,31.34
2022-08-12T16:40:06.146Z,31.34
2022-08-12T16:42:42.063Z,31.41
2022-08-12T16:45:32.247Z,31.11
2022-08-12T16:48:34.153Z,31.10
2022-08-12T16:51:13.857Z,31.02
2022-08-12T16:53:44.508Z,31.42
2022-08-12T16:56:17.350Z,31.56
2022-08-12T16:58:49.473Z,31.84
2022-08-12T17:01:21.081Z,31.43
2022-08-12T17:04:09.266Z,31.50
2022-08-12T17:06:43.365Z,31.70
2022-08-12T17:09:17.376Z,31.10
2022-08-12T17:11:49.385Z,31.15
2022-08-12T17:14:20.509Z,31.33
2022-08-12T17:16:54.928Z,31.01
2022-08-12T17:20:30.678Z,30.75
2022-08-12T17:22:16.694Z,31.04
2022-08-12T17:24:55.554Z,30.67
2022-08-12T17:27:30.942Z,30.59
2022-08-12T17:30:10.131Z,30.74
2022-08-12T17:32:53.397Z,29.92
2022-08-12T17:35:30.174Z,30.74
2022-08-12T17:38:15.495Z,30.06
2022-08-12T17:40:47.048Z,30.20
2022-08-12T17:43:57.020Z,30.46
2022-08-12T17:46:12.459Z,30.98
2022-08-12T17:48:55.133Z,30.56
2022-08-12T17:51:25.743Z,30.14
2022-08-12T17:54:11.223Z,30.22
2022-08-12T17:56:42.959Z,30.47
2022-08-12T17:59:13.274Z,30.40
2022-08-12T18:01:45.548Z,30.06
2022-08-12T18:04:22.820Z,30.40
2022-08-12T18:07:08.333Z,30.45
2022-08-12T18:09:38.043Z,30.44
2022-08-12T18:12:26.866Z,29.77
2022-08-12T18:15:08.949Z,30.14
2022-08-12T18:17:46.941Z,30.14
2022-08-12T18:20:18.182Z,29.80
2022-08-12T18:22:55.891Z,29.97
2022-08-12T18:26:14.837Z,30.10
2022-08-12T18:28:48.385Z,30.11
2022-08-12T18:31:32.936Z,29.84
2022-08-12T18:34:17.128Z,30.04
2022-08-12T18:36:50.361Z,29.82
2022-08-12T18:39:22.516Z,29.70
2022-08-12T18:41:53.145Z,29.55
2022-08-12T18:44:24.078Z,29.49
2022-08-12T18:46:55.886Z,29.29
2022-08-12T18:49:39.076Z,29.25
2022-08-12T18:52:11.483Z,28.98
2022-08-12T18:54:53.956Z,28.70
2022-08-12T18:57:59.702Z,28.75
2022-08-12T19:00:21.140Z,28.76
2022-08-12T19:02:53.135Z,28.70
2022-08-12T19:05:52.733Z,28.38
2022-08-12T19:08:15.344Z,28.46
2022-08-12T19:10:50.778Z,28.38
2022-08-12T19:13:40.468Z,28.14
2022-08-12T19:16:12.472Z,28.13
2022-08-12T19:18:44.691Z,27.99
2022-08-12T19:21:16.818Z,27.95
2022-08-12T19:24:11.953Z,27.83
2022-08-12T19:26:43.383Z,27.79
2022-08-12T19:29:14.519Z,27.66
2022-08-12T19:31:58.993Z,27.58
2022-08-12T19:38:03.186Z,27.57
2022-08-12T19:40:30.922Z,27.34
2022-08-12T19:43:19.926Z,27.43
2022-08-12T19:45:56.727Z,27.41
2022-08-12T19:48:32.601Z,27.21
2022-08-12T19:51:01.619Z,27.18
2022-08-12T19:53:56.964Z,27.02
2022-08-12T19:56:28.769Z,27.12
2022-08-12T19:59:20.594Z,27.12
2022-08-12T20:02:03.353Z,26.68
2022-08-12T20:04:38.967Z,26.76
2022-08-12T20:07:23.706Z,26.87
2022-08-12T20:09:53.670Z,26.75
2022-08-12T20:12:48.752Z,26.86
2022-08-12T20:15:15.399Z,26.72
2022-08-12T20:17:51.130Z,26.78
2022-08-12T20:20:27.620Z,26.72
2022-08-12T20:22:57.188Z,26.70
2022-08-12T20:25:28.436Z,26.71
2022-08-12T20:28:15.406Z,26.58
2022-08-12T20:30:59.279Z,26.40
2022-08-12T20:33:50.279Z,26.45
2022-08-12T20:36:41.117Z,26.12
2022-08-12T20:39:34.433Z,25.99
2022-08-12T20:42:07.254Z,25.65
2022-08-12T20:44:40.913Z,25.83
2022-08-12T20:47:20.241Z,25.86
2022-08-12T20:49:54.817Z,25.92
2022-08-12T20:52:28.989Z,25.82
2022-08-12T20:54:58.498Z,25.47
2022-08-12T20:57:37.994Z,25.53
2022-08-12T21:00:28.290Z,25.53
2022-08-12T21:03:16.642Z,25.52
2022-08-12T21:06:12.510Z,25.35
2022-08-12T21:08:43.827Z,25.05
2022-08-12T21:11:12.079Z,25.10
2022-08-12T21:13:41.858Z,25.32
2022-08-12T21:16:10.613Z,25.13
2022-08-12T21:18:39.776Z,25.19
2022-08-12T21:21:23.676Z,24.98
2022-08-12T21:23:56.280Z,24.65
2022-08-12T21:26:28.043Z,24.88
2022-08-12T21:29:01.757Z,24.58
2022-08-12T21:32:36.384Z,24.64
2022-08-12T21:34:26.355Z,24.67
2022-08-12T21:37:13.271Z,24.40
2022-08-12T21:39:52.097Z,24.49
2022-08-12T21:42:21.055Z,24.65
2022-08-12T21:45:47.858Z,24.50
2022-08-12T21:47:44.790Z,24.40
2022-08-12T21:50:15.441Z,24.50
2022-08-12T21:52:43.660Z,24.47
2022-08-12T21:55:19.984Z,24.31
2022-08-12T21:57:53.213Z,24.12
2022-08-12T22:00:32.989Z,24.00
2022-08-12T22:04:02.847Z,24.12
2022-08-12T22:06:25.864Z,24.18
2022-08-12T22:09:03.850Z,24.09
2022-08-12T22:11:41.865Z,23.84
2022-08-12T22:14:21.346Z,23.39
2022-08-12T22:16:53.991Z,23.48
2022-08-12T22:19:23.048Z,23.62
2022-08-12T22:21:55.807Z,23.72
2022-08-12T22:24:26.792Z,23.87
2022-08-12T22:27:08.183Z,23.88
2022-08-12T22:30:16.146Z,23.98
2022-08-12T22:32:50.781Z,23.80
2022-08-12T22:35:47.212Z,23.74
2022-08-12T22:38:24.278Z,23.74
2022-08-12T22:41:27.675Z,23.22
2022-08-12T22:44:14.949Z,23.18
2022-08-12T22:46:54.145Z,23.27
2022-08-12T22:49:36.278Z,23.10
2022-08-12T22:52:08.607Z,23.17
2022-08-12T22:54:46.157Z,23.26
2022-08-12T22:57:49.200Z,23.62
2022-08-12T23:00:24.631Z,23.30
2022-08-12T23:03:03.077Z,23.44
2022-08-12T23:06:05.428Z,23.53
2022-08-12T23:08:31.935Z,23.46
2022-08-12T23:11:05.872Z,23.37
2022-08-12T23:13:49.175Z,23.30
2022-08-12T23:16:33.551Z,23.18
2022-08-12T23:19:17.966Z,22.81
2022-08-12T23:22:06.568Z,22.74
2022-08-12T23:24:55.947Z,22.83
2022-08-12T23:27:51.873Z,22.93
2022-08-12T23:30:32.088Z,22.85
2022-08-12T23:33:19.786Z,22.83
2022-08-12T23:35:59.024Z,22.92
2022-08-12T23:38:33.247Z,22.87
2022-08-12T23:41:05.697Z,22.90
2022-08-12T23:43:41.048Z,22.96
2022-08-12T23:46:18.703Z,22.86
2022-08-12T23:48:51.897Z,22.64
2022-08-12T23:51:25.314Z,22.66
2022-08-12T23:54:00.280Z,22.64
2022-08-12T23:56:33.911Z,22.67
2022-08-12T23:59:07.214Z,22.69
